sensor_id;sensor_type;location;lat;lon;timestamp;P1;durP1;ratioP1;P2;durP2;ratioP2
75535;SDS011;64119;52.070;20.804;2022-12-07T00:01:20;21.90;;;10.80;;
75535;SDS011;64119;52.070;20.804;2022-12-07T00:03:58;22.50;;;11.40;;
75535;SDS011;64119;52.070;20.804;2022-12-07T00:06:33;19.10;;;10.70;;
75535;SDS011;64119;52.070;20.804;2022-12-07T00:09:01;17.60;;;9.00;;
75535;SDS011;64119;52.070;20.804;2022-12-07T00:11:27;18.60;;;10.00;;
75535;SDS011;64119;52.070;20.804;2022-12-07T00:13:54;16.10;;;8.60;;
75535;SDS011;64119;52.070;20.804;2022-12-07T00:16:26;21.60;;;10.00;;
75535;SDS011;64119;52.070;20.804;2022-12-07T00:18:55;24.70;;;12.00;;
75535;SDS011;64119;52.070;20.804;2022-12-07T00:21:22;19.40;;;10.20;;
75535;SDS011;64119;52.070;20.804;2022-12-07T00:23:51;17.90;;;10.10;;
75535;SDS011;64119;52.070;20.804;2022-12-07T00:28:46;17.20;;;8.70;;
75535;SDS011;64119;52.070;20.804;2022-12-07T00:31:14;16.90;;;8.80;;
75535;SDS011;64119;52.070;20.804;2022-12-07T00:33:42;16.30;;;8.90;;
75535;SDS011;64119;52.070;20.804;2022-12-07T00:36:09;14.70;;;8.10;;
75535;SDS011;64119;52.070;20.804;2022-12-07T00:38:41;16.00;;;8.40;;
75535;SDS011;64119;52.070;20.804;2022-12-07T00:41:11;16.50;;;8.90;;
75535;SDS011;64119;52.070;20.804;2022-12-07T00:43:40;15.40;;;8.50;;
75535;SDS011;64119;52.070;20.804;2022-12-07T00:46:08;18.00;;;8.50;;
75535;SDS011;64119;52.070;20.804;2022-12-07T00:48:35;14.10;;;7.80;;
75535;SDS011;64119;52.070;20.804;2022-12-07T00:51:02;15.40;;;8.30;;
75535;SDS011;64119;52.070;20.804;2022-12-07T00:53:28;16.10;;;8.60;;
75535;SDS011;64119;52.070;20.804;2022-12-07T00:55:55;13.30;;;7.70;;
75535;SDS011;64119;52.070;20.804;2022-12-07T00:58:24;13.30;;;7.40;;
75535;SDS011;64119;52.070;20.804;2022-12-07T01:00:51;11.60;;;6.20;;
75535;SDS011;64119;52.070;20.804;2022-12-07T01:03:17;15.00;;;7.50;;
75535;SDS011;64119;52.070;20.804;2022-12-07T01:05:51;14.40;;;7.70;;
75535;SDS011;64119;52.070;20.804;2022-12-07T01:08:19;12.70;;;6.70;;
75535;SDS011;64119;52.070;20.804;2022-12-07T01:10:46;9.70;;;5.60;;
75535;SDS011;64119;52.070;20.804;2022-12-07T01:13:13;12.40;;;7.50;;
75535;SDS011;64119;52.070;20.804;2022-12-07T01:15:43;9.80;;;5.60;;
75535;SDS011;64119;52.070;20.804;2022-12-07T01:18:10;11.80;;;6.90;;
75535;SDS011;64119;52.070;20.804;2022-12-07T01:20:37;16.80;;;7.30;;
75535;SDS011;64119;52.070;20.804;2022-12-07T01:23:03;14.40;;;7.00;;
75535;SDS011;64119;52.070;20.804;2022-12-07T01:25:30;10.80;;;5.30;;
75535;SDS011;64119;52.070;20.804;2022-12-07T01:27:56;12.30;;;7.50;;
75535;SDS011;64119;52.070;20.804;2022-12-07T01:30:23;14.10;;;6.80;;
75535;SDS011;64119;52.070;20.804;2022-12-07T01:32:49;11.90;;;6.90;;
75535;SDS011;64119;52.070;20.804;2022-12-07T01:35:15;12.90;;;7.00;;
75535;SDS011;64119;52.070;20.804;2022-12-07T01:37:42;12.00;;;6.50;;
75535;SDS011;64119;52.070;20.804;2022-12-07T01:40:09;11.30;;;6.90;;
75535;SDS011;64119;52.070;20.804;2022-12-07T01:42:35;11.40;;;6.00;;
75535;SDS011;64119;52.070;20.804;2022-12-07T01:48:03;11.80;;;6.20;;
75535;SDS011;64119;52.070;20.804;2022-12-07T01:50:31;12.30;;;6.50;;
75535;SDS011;64119;52.070;20.804;2022-12-07T01:52:58;12.60;;;6.50;;
75535;SDS011;64119;52.070;20.804;2022-12-07T01:55:30;14.80;;;7.40;;
75535;SDS011;64119;52.070;20.804;2022-12-07T01:57:56;12.40;;;6.30;;
75535;SDS011;64119;52.070;20.804;2022-12-07T02:00:23;10.30;;;6.20;;
75535;SDS011;64119;52.070;20.804;2022-12-07T02:02:51;10.90;;;6.10;;
75535;SDS011;64119;52.070;20.804;2022-12-07T02:05:23;9.80;;;4.50;;
75535;SDS011;64119;52.070;20.804;2022-12-07T02:07:51;8.80;;;4.90;;
75535;SDS011;64119;52.070;20.804;2022-12-07T02:12:49;11.60;;;5.50;;
75535;SDS011;64119;52.070;20.804;2022-12-07T02:15:18;9.00;;;5.30;;
75535;SDS011;64119;52.070;20.804;2022-12-07T02:26:02;7.30;;;4.40;;
75535;SDS011;64119;52.070;20.804;2022-12-07T02:28:35;6.90;;;4.70;;
75535;SDS011;64119;52.070;20.804;2022-12-07T02:31:22;7.00;;;4.10;;
75535;SDS011;64119;52.070;20.804;2022-12-07T02:33:55;6.70;;;3.50;;
75535;SDS011;64119;52.070;20.804;2022-12-07T02:36:31;7.00;;;4.20;;
75535;SDS011;64119;52.070;20.804;2022-12-07T02:39:05;6.20;;;4.00;;
75535;SDS011;64119;52.070;20.804;2022-12-07T03:02:46;3.90;;;2.40;;
75535;SDS011;64119;52.070;20.804;2022-12-07T03:13:36;7.40;;;3.70;;
75535;SDS011;64119;52.070;20.804;2022-12-07T03:18:52;6.00;;;3.60;;
75535;SDS011;64119;52.070;20.804;2022-12-07T03:21:24;5.30;;;3.40;;
75535;SDS011;64119;52.070;20.804;2022-12-07T03:23:56;5.30;;;3.30;;
75535;SDS011;64119;52.070;20.804;2022-12-07T03:26:30;5.50;;;3.50;;
75535;SDS011;64119;52.070;20.804;2022-12-07T03:31:38;5.30;;;3.10;;
75535;SDS011;64119;52.070;20.804;2022-12-07T03:34:15;5.30;;;3.30;;
75535;SDS011;64119;52.070;20.804;2022-12-07T03:36:54;5.30;;;2.90;;
75535;SDS011;64119;52.070;20.804;2022-12-07T03:39:26;4.60;;;3.00;;
75535;SDS011;64119;52.070;20.804;2022-12-07T03:41:59;5.00;;;3.50;;
75535;SDS011;64119;52.070;20.804;2022-12-07T03:44:29;6.30;;;3.60;;
75535;SDS011;64119;52.070;20.804;2022-12-07T03:47:07;10.30;;;4.60;;
75535;SDS011;64119;52.070;20.804;2022-12-07T03:49:40;8.70;;;4.40;;
75535;SDS011;64119;52.070;20.804;2022-12-07T03:52:17;9.80;;;5.00;;
75535;SDS011;64119;52.070;20.804;2022-12-07T03:54:53;7.50;;;4.90;;
75535;SDS011;64119;52.070;20.804;2022-12-07T03:57:21;9.60;;;4.90;;
75535;SDS011;64119;52.070;20.804;2022-12-07T03:59:51;8.70;;;4.80;;
75535;SDS011;64119;52.070;20.804;2022-12-07T04:02:21;8.20;;;4.90;;
75535;SDS011;64119;52.070;20.804;2022-12-07T04:04:50;9.80;;;5.50;;
75535;SDS011;64119;52.070;20.804;2022-12-07T04:07:18;10.50;;;5.50;;
75535;SDS011;64119;52.070;20.804;2022-12-07T04:09:46;9.20;;;4.80;;
75535;SDS011;64119;52.070;20.804;2022-12-07T04:12:14;7.40;;;5.10;;
75535;SDS011;64119;52.070;20.804;2022-12-07T04:14:41;10.30;;;5.10;;
75535;SDS011;64119;52.070;20.804;2022-12-07T04:17:09;10.40;;;5.00;;
75535;SDS011;64119;52.070;20.804;2022-12-07T04:19:37;9.90;;;5.40;;
75535;SDS011;64119;52.070;20.804;2022-12-07T04:22:05;8.90;;;4.60;;
75535;SDS011;64119;52.070;20.804;2022-12-07T04:24:34;7.00;;;4.20;;
75535;SDS011;64119;52.070;20.804;2022-12-07T04:27:02;8.20;;;4.00;;
75535;SDS011;64119;52.070;20.804;2022-12-07T04:29:29;7.30;;;4.60;;
75535;SDS011;64119;52.070;20.804;2022-12-07T04:31:57;6.80;;;3.50;;
75535;SDS011;64119;52.070;20.804;2022-12-07T04:34:25;6.10;;;3.90;;
75535;SDS011;64119;52.070;20.804;2022-12-07T04:36:53;7.30;;;4.50;;
75535;SDS011;64119;52.070;20.804;2022-12-07T04:39:27;9.10;;;4.70;;
75535;SDS011;64119;52.070;20.804;2022-12-07T04:41:57;7.10;;;4.10;;
75535;SDS011;64119;52.070;20.804;2022-12-07T04:44:26;7.90;;;4.60;;
75535;SDS011;64119;52.070;20.804;2022-12-07T04:46:54;8.30;;;4.20;;
75535;SDS011;64119;52.070;20.804;2022-12-07T04:51:52;7.90;;;4.60;;
75535;SDS011;64119;52.070;20.804;2022-12-07T04:54:20;9.10;;;5.00;;
75535;SDS011;64119;52.070;20.804;2022-12-07T04:56:48;7.30;;;4.60;;
75535;SDS011;64119;52.070;20.804;2022-12-07T04:59:16;7.70;;;4.70;;
75535;SDS011;64119;52.070;20.804;2022-12-07T05:01:44;8.40;;;5.00;;
75535;SDS011;64119;52.070;20.804;2022-12-07T05:04:12;6.50;;;4.60;;
75535;SDS011;64119;52.070;20.804;2022-12-07T05:06:40;10.10;;;5.20;;
75535;SDS011;64119;52.070;20.804;2022-12-07T05:09:08;8.50;;;4.60;;
75535;SDS011;64119;52.070;20.804;2022-12-07T05:11:36;9.40;;;4.90;;
75535;SDS011;64119;52.070;20.804;2022-12-07T05:14:08;9.60;;;4.80;;
75535;SDS011;64119;52.070;20.804;2022-12-07T05:16:38;8.80;;;5.30;;
75535;SDS011;64119;52.070;20.804;2022-12-07T05:19:07;11.00;;;5.80;;
75535;SDS011;64119;52.070;20.804;2022-12-07T05:21:36;9.10;;;5.20;;
75535;SDS011;64119;52.070;20.804;2022-12-07T05:24:04;9.80;;;5.30;;
75535;SDS011;64119;52.070;20.804;2022-12-07T05:26:33;9.70;;;5.60;;
75535;SDS011;64119;52.070;20.804;2022-12-07T05:29:01;10.90;;;5.40;;
75535;SDS011;64119;52.070;20.804;2022-12-07T05:31:30;11.40;;;5.60;;
75535;SDS011;64119;52.070;20.804;2022-12-07T05:33:58;9.20;;;5.20;;
75535;SDS011;64119;52.070;20.804;2022-12-07T05:36:25;8.20;;;5.50;;
75535;SDS011;64119;52.070;20.804;2022-12-07T05:38:55;10.30;;;5.10;;
75535;SDS011;64119;52.070;20.804;2022-12-07T05:41:23;10.10;;;5.30;;
75535;SDS011;64119;52.070;20.804;2022-12-07T05:44:09;11.70;;;6.10;;
75535;SDS011;64119;52.070;20.804;2022-12-07T05:46:37;13.00;;;6.50;;
75535;SDS011;64119;52.070;20.804;2022-12-07T05:49:05;11.50;;;6.60;;
75535;SDS011;64119;52.070;20.804;2022-12-07T05:51:33;13.20;;;6.70;;
75535;SDS011;64119;52.070;20.804;2022-12-07T05:54:01;10.10;;;5.50;;
75535;SDS011;64119;52.070;20.804;2022-12-07T05:56:28;8.60;;;5.60;;
75535;SDS011;64119;52.070;20.804;2022-12-07T05:58:56;11.40;;;5.60;;
75535;SDS011;64119;52.070;20.804;2022-12-07T06:01:42;10.20;;;5.20;;
75535;SDS011;64119;52.070;20.804;2022-12-07T06:04:11;13.50;;;5.80;;
75535;SDS011;64119;52.070;20.804;2022-12-07T06:06:38;9.20;;;5.30;;
75535;SDS011;64119;52.070;20.804;2022-12-07T06:09:06;10.90;;;6.00;;
75535;SDS011;64119;52.070;20.804;2022-12-07T06:11:34;10.20;;;5.00;;
75535;SDS011;64119;52.070;20.804;2022-12-07T06:14:21;8.00;;;4.40;;
75535;SDS011;64119;52.070;20.804;2022-12-07T06:16:48;7.30;;;4.50;;
75535;SDS011;64119;52.070;20.804;2022-12-07T06:19:16;7.60;;;4.40;;
75535;SDS011;64119;52.070;20.804;2022-12-07T06:21:44;8.60;;;4.60;;
75535;SDS011;64119;52.070;20.804;2022-12-07T06:24:12;11.10;;;5.70;;
75535;SDS011;64119;52.070;20.804;2022-12-07T06:26:41;9.70;;;5.50;;
75535;SDS011;64119;52.070;20.804;2022-12-07T06:29:09;8.30;;;5.10;;
75535;SDS011;64119;52.070;20.804;2022-12-07T06:31:38;9.30;;;5.00;;
75535;SDS011;64119;52.070;20.804;2022-12-07T06:34:09;10.50;;;5.90;;
75535;SDS011;64119;52.070;20.804;2022-12-07T06:36:38;8.90;;;5.50;;
75535;SDS011;64119;52.070;20.804;2022-12-07T06:39:06;8.50;;;4.60;;
75535;SDS011;64119;52.070;20.804;2022-12-07T06:41:36;10.80;;;5.60;;
75535;SDS011;64119;52.070;20.804;2022-12-07T06:44:05;9.50;;;5.10;;
75535;SDS011;64119;52.070;20.804;2022-12-07T06:46:33;8.20;;;4.80;;
75535;SDS011;64119;52.070;20.804;2022-12-07T06:49:03;9.90;;;5.20;;
75535;SDS011;64119;52.070;20.804;2022-12-07T06:51:32;8.40;;;4.60;;
75535;SDS011;64119;52.070;20.804;2022-12-07T06:54:00;7.20;;;4.10;;
75535;SDS011;64119;52.070;20.804;2022-12-07T06:56:27;8.10;;;4.00;;
75535;SDS011;64119;52.070;20.804;2022-12-07T06:58:56;7.10;;;4.20;;
75535;SDS011;64119;52.070;20.804;2022-12-07T07:01:23;6.30;;;3.80;;
75535;SDS011;64119;52.070;20.804;2022-12-07T07:03:51;8.00;;;4.10;;
75535;SDS011;64119;52.070;20.804;2022-12-07T07:06:19;7.30;;;4.40;;
75535;SDS011;64119;52.070;20.804;2022-12-07T07:08:47;8.00;;;4.90;;
75535;SDS011;64119;52.070;20.804;2022-12-07T07:11:15;8.90;;;4.40;;
75535;SDS011;64119;52.070;20.804;2022-12-07T07:13:43;8.70;;;4.40;;
75535;SDS011;64119;52.070;20.804;2022-12-07T07:16:11;7.20;;;4.40;;
75535;SDS011;64119;52.070;20.804;2022-12-07T07:18:39;7.60;;;3.60;;
75535;SDS011;64119;52.070;20.804;2022-12-07T07:21:07;6.30;;;3.60;;
75535;SDS011;64119;52.070;20.804;2022-12-07T07:23:35;6.90;;;3.30;;
75535;SDS011;64119;52.070;20.804;2022-12-07T07:26:02;5.70;;;3.10;;
75535;SDS011;64119;52.070;20.804;2022-12-07T07:28:30;5.70;;;3.30;;
75535;SDS011;64119;52.070;20.804;2022-12-07T07:30:58;4.90;;;3.20;;
75535;SDS011;64119;52.070;20.804;2022-12-07T07:33:26;5.70;;;3.20;;
75535;SDS011;64119;52.070;20.804;2022-12-07T07:35:53;7.30;;;4.00;;
75535;SDS011;64119;52.070;20.804;2022-12-07T07:38:21;7.30;;;3.80;;
75535;SDS011;64119;52.070;20.804;2022-12-07T07:40:49;5.90;;;3.30;;
75535;SDS011;64119;52.070;20.804;2022-12-07T07:43:16;5.00;;;3.00;;
75535;SDS011;64119;52.070;20.804;2022-12-07T07:45:44;7.30;;;4.00;;
75535;SDS011;64119;52.070;20.804;2022-12-07T07:48:12;5.90;;;3.70;;
75535;SDS011;64119;52.070;20.804;2022-12-07T07:50:40;7.10;;;3.60;;
75535;SDS011;64119;52.070;20.804;2022-12-07T07:53:08;8.20;;;3.90;;
75535;SDS011;64119;52.070;20.804;2022-12-07T07:55:35;7.30;;;4.10;;
75535;SDS011;64119;52.070;20.804;2022-12-07T07:58:03;6.80;;;3.70;;
75535;SDS011;64119;52.070;20.804;2022-12-07T08:00:31;8.10;;;3.90;;
75535;SDS011;64119;52.070;20.804;2022-12-07T08:02:59;8.30;;;4.60;;
75535;SDS011;64119;52.070;20.804;2022-12-07T08:05:27;7.20;;;3.50;;
75535;SDS011;64119;52.070;20.804;2022-12-07T08:07:54;6.00;;;4.00;;
75535;SDS011;64119;52.070;20.804;2022-12-07T08:10:22;8.60;;;4.20;;
75535;SDS011;64119;52.070;20.804;2022-12-07T08:12:50;7.30;;;4.10;;
75535;SDS011;64119;52.070;20.804;2022-12-07T08:15:57;8.90;;;3.90;;
75535;SDS011;64119;52.070;20.804;2022-12-07T08:18:25;8.30;;;3.70;;
75535;SDS011;64119;52.070;20.804;2022-12-07T08:20:58;7.40;;;4.10;;
75535;SDS011;64119;52.070;20.804;2022-12-07T08:23:27;7.20;;;4.60;;
75535;SDS011;64119;52.070;20.804;2022-12-07T08:26:07;7.90;;;4.00;;
75535;SDS011;64119;52.070;20.804;2022-12-07T08:28:36;9.00;;;4.10;;
75535;SDS011;64119;52.070;20.804;2022-12-07T08:31:06;7.40;;;3.80;;
75535;SDS011;64119;52.070;20.804;2022-12-07T08:33:39;8.00;;;4.80;;
75535;SDS011;64119;52.070;20.804;2022-12-07T08:36:08;12.10;;;5.40;;
75535;SDS011;64119;52.070;20.804;2022-12-07T08:38:37;8.80;;;4.60;;
75535;SDS011;64119;52.070;20.804;2022-12-07T08:41:07;12.20;;;5.80;;
75535;SDS011;64119;52.070;20.804;2022-12-07T08:43:35;12.90;;;5.70;;
75535;SDS011;64119;52.070;20.804;2022-12-07T08:49:09;8.90;;;4.80;;
75535;SDS011;64119;52.070;20.804;2022-12-07T08:51:40;9.90;;;5.20;;
75535;SDS011;64119;52.070;20.804;2022-12-07T08:54:11;12.00;;;5.30;;
75535;SDS011;64119;52.070;20.804;2022-12-07T08:56:42;12.30;;;6.40;;
75535;SDS011;64119;52.070;20.804;2022-12-07T08:59:12;12.00;;;5.90;;
75535;SDS011;64119;52.070;20.804;2022-12-07T09:01:42;12.40;;;5.70;;
75535;SDS011;64119;52.070;20.804;2022-12-07T09:04:10;10.80;;;6.10;;
75535;SDS011;64119;52.070;20.804;2022-12-07T09:06:38;13.30;;;6.90;;
75535;SDS011;64119;52.070;20.804;2022-12-07T09:09:06;11.30;;;5.20;;
75535;SDS011;64119;52.070;20.804;2022-12-07T09:11:36;11.80;;;5.20;;
75535;SDS011;64119;52.070;20.804;2022-12-07T09:14:03;8.40;;;5.40;;
75535;SDS011;64119;52.070;20.804;2022-12-07T09:16:31;8.70;;;4.90;;
75535;SDS011;64119;52.070;20.804;2022-12-07T09:18:59;11.00;;;6.00;;
75535;SDS011;64119;52.070;20.804;2022-12-07T09:21:26;13.30;;;6.20;;
75535;SDS011;64119;52.070;20.804;2022-12-07T09:23:54;11.50;;;5.60;;
75535;SDS011;64119;52.070;20.804;2022-12-07T09:26:22;13.80;;;6.90;;
75535;SDS011;64119;52.070;20.804;2022-12-07T09:28:50;11.70;;;5.90;;
75535;SDS011;64119;52.070;20.804;2022-12-07T09:31:17;12.80;;;5.50;;
75535;SDS011;64119;52.070;20.804;2022-12-07T09:33:55;13.80;;;6.00;;
75535;SDS011;64119;52.070;20.804;2022-12-07T09:36:24;12.60;;;5.70;;
75535;SDS011;64119;52.070;20.804;2022-12-07T09:38:53;12.10;;;6.70;;
75535;SDS011;64119;52.070;20.804;2022-12-07T09:41:21;13.50;;;5.90;;
75535;SDS011;64119;52.070;20.804;2022-12-07T09:43:51;12.70;;;5.70;;
75535;SDS011;64119;52.070;20.804;2022-12-07T09:46:20;10.00;;;4.80;;
75535;SDS011;64119;52.070;20.804;2022-12-07T09:48:48;11.90;;;5.10;;
75535;SDS011;64119;52.070;20.804;2022-12-07T09:51:22;11.50;;;5.10;;
75535;SDS011;64119;52.070;20.804;2022-12-07T09:53:53;9.80;;;5.30;;
75535;SDS011;64119;52.070;20.804;2022-12-07T09:56:23;9.50;;;4.50;;
75535;SDS011;64119;52.070;20.804;2022-12-07T09:58:54;10.80;;;5.20;;
75535;SDS011;64119;52.070;20.804;2022-12-07T10:01:29;9.80;;;4.40;;
75535;SDS011;64119;52.070;20.804;2022-12-07T10:06:41;11.30;;;5.60;;
75535;SDS011;64119;52.070;20.804;2022-12-07T10:09:12;11.70;;;5.50;;
75535;SDS011;64119;52.070;20.804;2022-12-07T10:12:01;9.70;;;5.10;;
75535;SDS011;64119;52.070;20.804;2022-12-07T10:14:32;12.80;;;5.40;;
75535;SDS011;64119;52.070;20.804;2022-12-07T10:17:37;10.80;;;5.00;;
75535;SDS011;64119;52.070;20.804;2022-12-07T10:22:38;10.10;;;5.50;;
75535;SDS011;64119;52.070;20.804;2022-12-07T10:25:22;14.20;;;5.90;;
75535;SDS011;64119;52.070;20.804;2022-12-07T10:27:58;10.60;;;5.50;;
75535;SDS011;64119;52.070;20.804;2022-12-07T10:30:27;12.00;;;5.40;;
75535;SDS011;64119;52.070;20.804;2022-12-07T10:32:55;10.00;;;4.70;;
75535;SDS011;64119;52.070;20.804;2022-12-07T10:35:27;7.30;;;4.60;;
75535;SDS011;64119;52.070;20.804;2022-12-07T10:37:57;7.10;;;4.40;;
75535;SDS011;64119;52.070;20.804;2022-12-07T10:40:30;7.30;;;3.70;;
75535;SDS011;64119;52.070;20.804;2022-12-07T10:43:01;11.00;;;5.80;;
75535;SDS011;64119;52.070;20.804;2022-12-07T10:54:27;13.40;;;6.00;;
75535;SDS011;64119;52.070;20.804;2022-12-07T11:02:54;13.40;;;6.50;;
75535;SDS011;64119;52.070;20.804;2022-12-07T11:11:55;10.90;;;5.10;;
75535;SDS011;64119;52.070;20.804;2022-12-07T11:15:01;9.60;;;5.30;;
75535;SDS011;64119;52.070;20.804;2022-12-07T11:20:31;11.10;;;5.50;;
75535;SDS011;64119;52.070;20.804;2022-12-07T11:23:11;11.20;;;5.80;;
75535;SDS011;64119;52.070;20.804;2022-12-07T11:33:34;12.30;;;6.30;;
75535;SDS011;64119;52.070;20.804;2022-12-07T11:36:42;12.30;;;6.20;;
75535;SDS011;64119;52.070;20.804;2022-12-07T11:41:56;15.40;;;7.20;;
75535;SDS011;64119;52.070;20.804;2022-12-07T11:47:12;11.10;;;5.50;;
75535;SDS011;64119;52.070;20.804;2022-12-07T11:50:03;11.50;;;6.00;;
75535;SDS011;64119;52.070;20.804;2022-12-07T11:52:48;11.80;;;6.10;;
75535;SDS011;64119;52.070;20.804;2022-12-07T12:00:49;11.50;;;5.40;;
75535;SDS011;64119;52.070;20.804;2022-12-07T12:03:25;9.70;;;4.60;;
75535;SDS011;64119;52.070;20.804;2022-12-07T12:05:59;8.80;;;5.40;;
75535;SDS011;64119;52.070;20.804;2022-12-07T12:08:28;9.70;;;5.60;;
75535;SDS011;64119;52.070;20.804;2022-12-07T12:14:04;8.20;;;4.70;;
75535;SDS011;64119;52.070;20.804;2022-12-07T12:17:03;11.00;;;6.00;;
75535;SDS011;64119;52.070;20.804;2022-12-07T12:20:13;11.70;;;6.10;;
75535;SDS011;64119;52.070;20.804;2022-12-07T12:22:45;11.90;;;5.90;;
75535;SDS011;64119;52.070;20.804;2022-12-07T12:28:03;11.60;;;6.00;;
75535;SDS011;64119;52.070;20.804;2022-12-07T12:30:36;7.20;;;3.60;;
75535;SDS011;64119;52.070;20.804;2022-12-07T12:33:27;10.10;;;5.00;;
75535;SDS011;64119;52.070;20.804;2022-12-07T12:49:32;8.20;;;4.50;;
75535;SDS011;64119;52.070;20.804;2022-12-07T12:55:26;9.50;;;5.00;;
75535;SDS011;64119;52.070;20.804;2022-12-07T12:57:35;8.70;;;4.20;;
75535;SDS011;64119;52.070;20.804;2022-12-07T13:00:17;6.40;;;4.00;;
75535;SDS011;64119;52.070;20.804;2022-12-07T13:02:49;6.70;;;3.40;;
75535;SDS011;64119;52.070;20.804;2022-12-07T13:05:22;6.60;;;4.00;;
75535;SDS011;64119;52.070;20.804;2022-12-07T13:07:55;5.00;;;3.00;;
75535;SDS011;64119;52.070;20.804;2022-12-07T13:15:39;7.10;;;4.40;;
75535;SDS011;64119;52.070;20.804;2022-12-07T13:23:37;7.20;;;3.90;;
75535;SDS011;64119;52.070;20.804;2022-12-07T13:34:31;8.80;;;4.80;;
75535;SDS011;64119;52.070;20.804;2022-12-07T13:37:24;7.60;;;4.50;;
75535;SDS011;64119;52.070;20.804;2022-12-07T13:39:57;8.70;;;5.00;;
75535;SDS011;64119;52.070;20.804;2022-12-07T13:44:54;10.30;;;5.70;;
75535;SDS011;64119;52.070;20.804;2022-12-07T13:50:30;7.80;;;5.20;;
75535;SDS011;64119;52.070;20.804;2022-12-07T13:53:00;7.80;;;4.60;;
75535;SDS011;64119;52.070;20.804;2022-12-07T13:55:29;7.20;;;4.70;;
75535;SDS011;64119;52.070;20.804;2022-12-07T13:57:57;7.90;;;4.70;;
75535;SDS011;64119;52.070;20.804;2022-12-07T14:00:26;10.00;;;6.40;;
75535;SDS011;64119;52.070;20.804;2022-12-07T14:02:56;10.10;;;5.90;;
75535;SDS011;64119;52.070;20.804;2022-12-07T14:05:25;8.00;;;5.00;;
75535;SDS011;64119;52.070;20.804;2022-12-07T14:10:39;10.00;;;6.00;;
75535;SDS011;64119;52.070;20.804;2022-12-07T14:15:58;13.50;;;7.90;;
75535;SDS011;64119;52.070;20.804;2022-12-07T14:21:25;13.90;;;6.40;;
75535;SDS011;64119;52.070;20.804;2022-12-07T14:26:47;11.30;;;6.00;;
75535;SDS011;64119;52.070;20.804;2022-12-07T14:31:53;12.40;;;5.60;;
75535;SDS011;64119;52.070;20.804;2022-12-07T14:34:22;12.30;;;6.10;;
75535;SDS011;64119;52.070;20.804;2022-12-07T14:36:51;13.70;;;7.30;;
75535;SDS011;64119;52.070;20.804;2022-12-07T14:39:19;13.00;;;6.80;;
75535;SDS011;64119;52.070;20.804;2022-12-07T14:41:47;11.00;;;6.00;;
75535;SDS011;64119;52.070;20.804;2022-12-07T14:44:19;11.90;;;6.60;;
75535;SDS011;64119;52.070;20.804;2022-12-07T14:46:53;13.60;;;6.60;;
75535;SDS011;64119;52.070;20.804;2022-12-07T14:49:41;12.50;;;6.40;;
75535;SDS011;64119;52.070;20.804;2022-12-07T14:52:13;12.60;;;6.10;;
75535;SDS011;64119;52.070;20.804;2022-12-07T14:55:04;10.70;;;6.10;;
75535;SDS011;64119;52.070;20.804;2022-12-07T14:57:39;12.50;;;5.90;;
75535;SDS011;64119;52.070;20.804;2022-12-07T15:00:08;13.80;;;6.70;;
75535;SDS011;64119;52.070;20.804;2022-12-07T15:02:40;10.10;;;6.00;;
75535;SDS011;64119;52.070;20.804;2022-12-07T15:05:09;12.40;;;7.00;;
75535;SDS011;64119;52.070;20.804;2022-12-07T15:07:43;9.20;;;5.60;;
75535;SDS011;64119;52.070;20.804;2022-12-07T15:10:20;12.50;;;5.70;;
75535;SDS011;64119;52.070;20.804;2022-12-07T15:12:51;8.40;;;5.20;;
75535;SDS011;64119;52.070;20.804;2022-12-07T15:15:18;8.10;;;4.80;;
75535;SDS011;64119;52.070;20.804;2022-12-07T15:17:47;7.70;;;4.60;;
75535;SDS011;64119;52.070;20.804;2022-12-07T15:20:14;9.10;;;5.60;;
75535;SDS011;64119;52.070;20.804;2022-12-07T15:22:44;9.90;;;5.30;;
75535;SDS011;64119;52.070;20.804;2022-12-07T15:25:12;9.50;;;5.40;;
75535;SDS011;64119;52.070;20.804;2022-12-07T15:27:41;9.00;;;5.10;;
75535;SDS011;64119;52.070;20.804;2022-12-07T15:30:09;12.00;;;6.10;;
75535;SDS011;64119;52.070;20.804;2022-12-07T15:32:37;12.00;;;5.80;;
75535;SDS011;64119;52.070;20.804;2022-12-07T15:35:05;11.00;;;5.60;;
75535;SDS011;64119;52.070;20.804;2022-12-07T15:37:33;8.40;;;4.30;;
75535;SDS011;64119;52.070;20.804;2022-12-07T15:40:01;9.30;;;5.40;;
75535;SDS011;64119;52.070;20.804;2022-12-07T15:42:35;9.30;;;5.20;;
75535;SDS011;64119;52.070;20.804;2022-12-07T15:45:04;11.20;;;6.20;;
75535;SDS011;64119;52.070;20.804;2022-12-07T15:47:35;8.80;;;5.40;;
75535;SDS011;64119;52.070;20.804;2022-12-07T15:50:25;10.00;;;5.30;;
75535;SDS011;64119;52.070;20.804;2022-12-07T15:52:53;13.90;;;7.20;;
75535;SDS011;64119;52.070;20.804;2022-12-07T15:55:21;13.60;;;7.00;;
75535;SDS011;64119;52.070;20.804;2022-12-07T15:57:49;7.40;;;3.60;;
75535;SDS011;64119;52.070;20.804;2022-12-07T16:00:17;10.40;;;5.10;;
75535;SDS011;64119;52.070;20.804;2022-12-07T16:02:45;10.10;;;5.90;;
75535;SDS011;64119;52.070;20.804;2022-12-07T16:05:13;14.00;;;7.80;;
75535;SDS011;64119;52.070;20.804;2022-12-07T16:07:41;11.10;;;6.40;;
75535;SDS011;64119;52.070;20.804;2022-12-07T16:10:09;12.90;;;6.60;;
75535;SDS011;64119;52.070;20.804;2022-12-07T16:12:37;12.70;;;6.60;;
75535;SDS011;64119;52.070;20.804;2022-12-07T16:15:05;9.90;;;6.20;;
75535;SDS011;64119;52.070;20.804;2022-12-07T16:17:33;12.20;;;6.40;;
75535;SDS011;64119;52.070;20.804;2022-12-07T16:20:01;12.40;;;6.60;;
75535;SDS011;64119;52.070;20.804;2022-12-07T16:22:30;15.00;;;8.10;;
75535;SDS011;64119;52.070;20.804;2022-12-07T16:24:59;16.40;;;9.40;;
75535;SDS011;64119;52.070;20.804;2022-12-07T16:27:27;13.70;;;7.50;;
75535;SDS011;64119;52.070;20.804;2022-12-07T16:29:55;12.70;;;6.70;;
75535;SDS011;64119;52.070;20.804;2022-12-07T16:32:23;10.40;;;5.90;;
75535;SDS011;64119;52.070;20.804;2022-12-07T16:34:51;9.80;;;5.10;;
75535;SDS011;64119;52.070;20.804;2022-12-07T16:37:19;11.70;;;5.50;;
75535;SDS011;64119;52.070;20.804;2022-12-07T16:39:46;13.90;;;6.90;;
75535;SDS011;64119;52.070;20.804;2022-12-07T16:42:14;10.80;;;6.20;;
75535;SDS011;64119;52.070;20.804;2022-12-07T16:44:42;13.70;;;6.70;;
75535;SDS011;64119;52.070;20.804;2022-12-07T16:47:09;11.80;;;5.40;;
75535;SDS011;64119;52.070;20.804;2022-12-07T16:49:37;13.00;;;6.20;;
75535;SDS011;64119;52.070;20.804;2022-12-07T16:52:05;11.60;;;5.90;;
75535;SDS011;64119;52.070;20.804;2022-12-07T16:54:47;15.00;;;6.50;;
75535;SDS011;64119;52.070;20.804;2022-12-07T16:57:16;13.50;;;6.70;;
75535;SDS011;64119;52.070;20.804;2022-12-07T16:59:50;14.10;;;7.40;;
75535;SDS011;64119;52.070;20.804;2022-12-07T17:02:19;9.90;;;5.60;;
75535;SDS011;64119;52.070;20.804;2022-12-07T17:04:47;10.00;;;5.70;;
75535;SDS011;64119;52.070;20.804;2022-12-07T17:07:17;12.90;;;8.00;;
75535;SDS011;64119;52.070;20.804;2022-12-07T17:09:45;10.80;;;6.20;;
75535;SDS011;64119;52.070;20.804;2022-12-07T17:12:12;9.20;;;5.40;;
75535;SDS011;64119;52.070;20.804;2022-12-07T17:14:40;11.60;;;5.80;;
75535;SDS011;64119;52.070;20.804;2022-12-07T17:17:27;14.10;;;6.50;;
75535;SDS011;64119;52.070;20.804;2022-12-07T17:19:54;9.70;;;5.40;;
75535;SDS011;64119;52.070;20.804;2022-12-07T17:22:22;11.50;;;5.40;;
75535;SDS011;64119;52.070;20.804;2022-12-07T17:24:50;10.70;;;6.20;;
75535;SDS011;64119;52.070;20.804;2022-12-07T17:27:17;10.50;;;6.00;;
75535;SDS011;64119;52.070;20.804;2022-12-07T17:29:45;10.40;;;6.40;;
75535;SDS011;64119;52.070;20.804;2022-12-07T17:32:13;10.10;;;6.60;;
75535;SDS011;64119;52.070;20.804;2022-12-07T17:34:41;10.00;;;5.60;;